Aviation Digital Data Service (ADDS)

Output produced by METARs form (0221 UTC 02 October 2014)
found at http://aviationweather.gov/adds/metars/
 
KBTV 012320Z 0200/0224 32004KT P6SM BKN045 
     FM020300 35002KT P6SM OVC025 
     FM020700 00000KT P6SM OVC008 
     FM021000 00000KT P6SM OVC040 
     FM021500 17005KT P6SM BKN040 
     FM021800 24005KT P6SM SCT250